createdAt,value
2022-08-03T00:00:40.681Z,19.40
2022-08-03T00:03:08.934Z,19.30
2022-08-03T00:05:38.358Z,19.30
2022-08-03T00:08:06.849Z,19.30
2022-08-03T00:10:36.646Z,19.20
2022-08-03T00:13:05.036Z,19.00
2022-08-03T00:15:33.110Z,19.00
2022-08-03T00:18:01.045Z,18.90
2022-08-03T00:20:29.420Z,19.00
2022-08-03T00:22:57.466Z,19.00
2022-08-03T00:25:25.876Z,18.90
2022-08-03T00:27:56.623Z,18.80
2022-08-03T00:30:27.560Z,18.80
2022-08-03T00:32:59.814Z,18.70
2022-08-03T00:35:50.157Z,18.60
2022-08-03T00:38:16.750Z,18.70
2022-08-03T00:40:44.853Z,18.60
2022-08-03T00:43:14.569Z,18.60
2022-08-03T00:45:43.630Z,18.50
2022-08-03T00:48:32.215Z,18.40
2022-08-03T00:51:01.291Z,18.50
2022-08-03T00:53:29.876Z,18.50
2022-08-03T00:55:58.030Z,18.50
2022-08-03T00:58:27.561Z,18.40
2022-08-03T01:00:55.897Z,18.30
2022-08-03T01:03:24.320Z,18.30
2022-08-03T01:06:09.213Z,18.20
2022-08-03T01:08:45.330Z,18.20
2022-08-03T01:11:20.277Z,18.10
2022-08-03T01:14:18.385Z,18.10
2022-08-03T01:16:57.086Z,18.00
2022-08-03T01:19:41.818Z,18.00
2022-08-03T01:22:30.293Z,18.00
2022-08-03T01:25:04.068Z,18.00
2022-08-03T01:27:43.949Z,18.00
2022-08-03T01:30:13.946Z,18.10
2022-08-03T01:33:02.227Z,18.00
2022-08-03T01:35:38.674Z,17.90
2022-08-03T01:38:11.009Z,17.70
2022-08-03T01:40:42.723Z,17.50
2022-08-03T01:44:26.429Z,17.50
2022-08-03T01:46:08.725Z,17.50
2022-08-03T01:48:39.133Z,17.50
2022-08-03T01:51:09.397Z,17.60
2022-08-03T01:53:43.792Z,17.60
2022-08-03T01:56:12.274Z,17.60
2022-08-03T01:58:45.543Z,17.60
2022-08-03T02:01:16.972Z,17.60
2022-08-03T02:03:59.905Z,17.60
2022-08-03T02:07:01.851Z,17.60
2022-08-03T02:09:23.585Z,17.60
2022-08-03T02:11:53.037Z,17.60
2022-08-03T02:14:22.849Z,17.50
2022-08-03T02:16:52.890Z,17.50
2022-08-03T02:19:21.032Z,17.40
2022-08-03T02:21:55.764Z,17.40
2022-08-03T02:24:25.808Z,17.30
2022-08-03T02:26:57.231Z,17.20
2022-08-03T02:29:39.177Z,17.30
2022-08-03T02:32:12.870Z,17.20
2022-08-03T02:34:42.681Z,17.10
2022-08-03T02:37:13.286Z,17.10
2022-08-03T02:39:43.282Z,17.10
2022-08-03T02:42:13.023Z,17.10
2022-08-03T02:44:47.738Z,17.00
2022-08-03T02:47:20.852Z,17.10
2022-08-03T02:49:52.129Z,17.10
2022-08-03T02:52:23.414Z,17.00
2022-08-03T02:54:58.139Z,17.00
2022-08-03T02:57:27.677Z,17.00
2022-08-03T02:59:57.387Z,17.00
2022-08-03T03:02:28.016Z,17.10
2022-08-03T03:05:56.762Z,17.10
2022-08-03T03:07:52.016Z,17.10
2022-08-03T03:10:22.596Z,17.10
2022-08-03T03:12:52.477Z,17.10
2022-08-03T03:15:20.919Z,17.10
2022-08-03T03:17:52.100Z,17.00
2022-08-03T03:20:28.943Z,17.00
2022-08-03T03:23:00.696Z,17.00
2022-08-03T03:25:29.823Z,16.90
2022-08-03T03:27:58.154Z,16.90
2022-08-03T03:30:27.016Z,16.90
2022-08-03T03:32:56.808Z,16.80
2022-08-03T03:35:24.828Z,16.80
2022-08-03T03:37:55.517Z,16.80
2022-08-03T03:40:24.091Z,16.80
2022-08-03T03:42:52.401Z,16.90
2022-08-03T03:45:22.082Z,16.90
2022-08-03T03:47:50.564Z,16.80
2022-08-03T03:50:21.624Z,16.90
2022-08-03T03:52:49.777Z,16.90
2022-08-03T03:55:18.865Z,16.90
2022-08-03T03:57:47.158Z,17.00
2022-08-03T04:00:16.960Z,16.90
2022-08-03T04:02:45.325Z,16.80
2022-08-03T04:05:31.440Z,16.90
2022-08-03T04:08:21.913Z,16.90
2022-08-03T04:11:02.381Z,16.90
2022-08-03T04:13:35.170Z,16.90
2022-08-03T04:16:04.225Z,16.90
2022-08-03T04:18:35.529Z,16.80
2022-08-03T04:21:07.191Z,16.80
2022-08-03T04:23:41.737Z,16.70
2022-08-03T04:26:13.276Z,16.60
2022-08-03T04:28:44.696Z,16.70
2022-08-03T04:31:13.411Z,16.70
2022-08-03T04:33:43.525Z,16.80
2022-08-03T04:36:17.031Z,16.80
2022-08-03T04:38:56.679Z,16.90
2022-08-03T04:41:26.880Z,17.00
2022-08-03T04:43:57.014Z,17.00
2022-08-03T04:46:28.060Z,17.10
2022-08-03T04:48:57.902Z,17.10
2022-08-03T04:51:26.644Z,17.00
2022-08-03T04:53:56.159Z,17.00
2022-08-03T04:56:24.101Z,17.00
2022-08-03T04:58:52.071Z,17.10
2022-08-03T05:01:22.632Z,17.20
2022-08-03T05:03:51.606Z,17.10
2022-08-03T05:06:19.829Z,17.20
2022-08-03T05:08:53.095Z,17.30
2022-08-03T05:11:22.395Z,17.40
2022-08-03T05:13:50.451Z,17.50
2022-08-03T05:16:18.655Z,17.50
2022-08-03T05:18:46.918Z,17.50
2022-08-03T05:21:16.747Z,17.60
2022-08-03T05:23:45.018Z,17.70
2022-08-03T05:26:13.204Z,17.60
2022-08-03T05:28:51.399Z,17.60
2022-08-03T05:31:19.976Z,17.60
2022-08-03T05:33:48.949Z,17.40
2022-08-03T05:36:17.533Z,17.50
2022-08-03T05:38:45.428Z,17.60
2022-08-03T05:41:21.376Z,17.90
2022-08-03T05:43:53.975Z,18.60
2022-08-03T05:46:22.528Z,20.00
2022-08-03T05:48:51.031Z,20.50
2022-08-03T05:51:19.499Z,20.80
2022-08-03T05:53:47.478Z,20.60
2022-08-03T05:56:16.583Z,20.40
2022-08-03T05:58:46.300Z,20.40
2022-08-03T06:01:16.032Z,20.80
2022-08-03T06:03:44.146Z,20.60
2022-08-03T06:06:12.441Z,20.50
2022-08-03T06:08:41.128Z,20.50
2022-08-03T06:11:09.786Z,20.60
2022-08-03T06:13:37.962Z,20.40
2022-08-03T06:16:09.440Z,20.30
2022-08-03T06:18:39.050Z,20.40
2022-08-03T06:21:14.352Z,20.80
2022-08-03T06:23:54.702Z,20.90
2022-08-03T06:26:25.273Z,20.90
2022-08-03T06:28:54.436Z,21.00
2022-08-03T06:31:26.098Z,21.20
2022-08-03T06:34:32.656Z,21.70
2022-08-03T06:36:52.557Z,22.10
2022-08-03T06:39:23.581Z,22.20
2022-08-03T06:41:53.025Z,22.50
2022-08-03T06:44:21.107Z,22.80
2022-08-03T06:46:49.071Z,23.20
2022-08-03T06:49:18.958Z,23.20
2022-08-03T06:52:03.330Z,22.60
2022-08-03T06:54:35.713Z,22.80
2022-08-03T06:57:04.189Z,23.00
2022-08-03T07:00:11.053Z,23.20
2022-08-03T07:02:20.494Z,23.30
2022-08-03T07:04:50.430Z,23.60
2022-08-03T07:07:19.236Z,23.70
2022-08-03T07:09:55.767Z,23.80
2022-08-03T07:12:26.838Z,23.90
2022-08-03T07:14:59.985Z,24.10
2022-08-03T07:17:31.731Z,23.70
2022-08-03T07:20:02.290Z,23.90
2022-08-03T07:22:30.424Z,24.10
2022-08-03T07:24:58.641Z,24.20
2022-08-03T07:27:28.492Z,24.30
2022-08-03T07:29:59.301Z,24.40
2022-08-03T07:32:28.454Z,24.60
2022-08-03T07:35:00.476Z,24.70
2022-08-03T07:37:31.825Z,24.80
2022-08-03T07:40:00.303Z,24.80
2022-08-03T07:42:28.462Z,24.90
2022-08-03T07:44:56.669Z,25.10
2022-08-03T07:47:35.596Z,25.40
2022-08-03T07:50:05.592Z,25.50
2022-08-03T07:52:50.759Z,25.80
2022-08-03T07:55:19.760Z,26.00
2022-08-03T07:57:47.873Z,26.10
2022-08-03T08:00:18.872Z,26.30
2022-08-03T08:02:47.022Z,26.30
2022-08-03T08:05:15.198Z,26.50
2022-08-03T08:07:44.629Z,26.80
2022-08-03T08:10:19.757Z,27.10
2022-08-03T08:12:48.244Z,27.20
2022-08-03T08:15:16.245Z,27.10
2022-08-03T08:17:45.723Z,27.50
2022-08-03T08:20:23.790Z,27.70
2022-08-03T08:23:01.261Z,28.00
2022-08-03T08:25:30.213Z,28.30
2022-08-03T08:28:29.371Z,28.50
2022-08-03T08:30:46.948Z,28.70
2022-08-03T08:33:23.031Z,29.00
2022-08-03T08:35:53.082Z,29.10
2022-08-03T08:38:22.913Z,29.10
2022-08-03T08:40:51.378Z,28.70
2022-08-03T08:43:19.406Z,29.00
2022-08-03T08:45:50.229Z,29.40
2022-08-03T08:48:23.421Z,29.50
2022-08-03T08:50:54.784Z,29.50
2022-08-03T08:53:27.643Z,29.60
2022-08-03T08:56:00.843Z,29.90
2022-08-03T08:58:31.392Z,30.10
2022-08-03T09:00:59.783Z,30.00
2022-08-03T09:03:30.421Z,30.30
2022-08-03T09:06:00.884Z,30.30
2022-08-03T09:08:30.939Z,30.20
2022-08-03T09:10:59.258Z,30.50
2022-08-03T09:13:27.368Z,30.50
2022-08-03T09:16:12.750Z,30.80
2022-08-03T09:18:42.166Z,31.00
2022-08-03T09:21:32.114Z,31.00
2022-08-03T09:24:06.491Z,31.10
2022-08-03T09:26:38.292Z,31.10
2022-08-03T09:29:13.463Z,31.50
2022-08-03T09:31:45.283Z,31.60
2022-08-03T09:34:15.137Z,31.60
2022-08-03T09:36:45.818Z,31.90
2022-08-03T09:39:17.336Z,31.80
2022-08-03T09:41:47.025Z,31.90
2022-08-03T09:44:16.210Z,32.10
2022-08-03T09:46:56.966Z,32.30
2022-08-03T09:49:25.918Z,32.60
2022-08-03T09:52:31.736Z,32.50
2022-08-03T09:54:44.662Z,31.80
2022-08-03T09:57:23.688Z,31.00
2022-08-03T09:59:54.985Z,31.40
2022-08-03T10:02:33.376Z,31.40
2022-08-03T10:05:01.412Z,31.50
2022-08-03T10:07:29.382Z,32.00
2022-08-03T10:10:30.937Z,32.10
2022-08-03T10:12:51.622Z,32.60
2022-08-03T10:16:24.078Z,32.50
2022-08-03T10:18:08.662Z,32.40
2022-08-03T10:20:40.788Z,32.60
2022-08-03T10:23:10.263Z,33.00
2022-08-03T10:25:41.510Z,33.40
2022-08-03T10:28:17.673Z,33.40
2022-08-03T10:30:50.037Z,33.60
2022-08-03T10:33:49.765Z,33.30
2022-08-03T10:36:10.543Z,33.40
2022-08-03T10:38:41.506Z,32.50
2022-08-03T10:41:12.124Z,32.90
2022-08-03T10:43:54.434Z,32.70
2022-08-03T10:46:23.200Z,33.10
2022-08-03T10:48:52.798Z,33.30
2022-08-03T10:51:21.306Z,33.40
2022-08-03T10:53:54.170Z,33.10
2022-08-03T10:57:06.316Z,33.10
2022-08-03T11:00:00.401Z,33.40
2022-08-03T11:03:01.574Z,32.10
2022-08-03T11:05:30.775Z,32.70
2022-08-03T11:08:25.122Z,33.40
2022-08-03T11:10:55.147Z,33.80
2022-08-03T11:13:28.231Z,34.10
2022-08-03T11:16:01.743Z,34.40
2022-08-03T11:18:31.334Z,34.40
2022-08-03T11:21:00.740Z,34.30
2022-08-03T11:24:03.966Z,34.10
2022-08-03T11:26:34.884Z,34.20
2022-08-03T11:29:29.989Z,34.60
2022-08-03T11:31:58.578Z,34.90
2022-08-03T11:34:27.243Z,34.90
2022-08-03T11:37:22.535Z,34.40
2022-08-03T11:39:54.764Z,34.50
2022-08-03T11:42:46.948Z,33.90
2022-08-03T11:45:18.009Z,33.50
2022-08-03T11:47:50.714Z,33.80
2022-08-03T11:50:21.549Z,34.40
2022-08-03T11:52:50.645Z,34.20
2022-08-03T11:55:22.075Z,33.80
2022-08-03T11:59:10.685Z,33.40
2022-08-03T12:00:40.666Z,34.10
2022-08-03T12:03:11.113Z,34.70
2022-08-03T12:05:51.280Z,34.20
2022-08-03T12:08:31.097Z,33.90
2022-08-03T12:11:01.298Z,33.80
2022-08-03T12:14:27.359Z,34.40
2022-08-03T12:16:29.624Z,34.90
2022-08-03T12:18:58.927Z,34.50
2022-08-03T12:21:27.634Z,34.40
2022-08-03T12:24:00.145Z,34.60
2022-08-03T12:26:29.285Z,34.70
2022-08-03T12:28:57.681Z,34.90
2022-08-03T12:31:27.255Z,35.10
2022-08-03T12:34:02.689Z,35.40
2022-08-03T12:36:34.844Z,35.40
2022-08-03T12:39:05.119Z,34.90
2022-08-03T12:41:35.272Z,34.10
2022-08-03T12:44:04.603Z,34.10
2022-08-03T12:46:36.682Z,34.20
2022-08-03T12:49:11.136Z,34.10
2022-08-03T12:51:57.004Z,34.80
2022-08-03T12:54:27.118Z,35.20
2022-08-03T12:57:01.020Z,35.00
2022-08-03T12:59:34.858Z,34.50
2022-08-03T13:02:09.414Z,34.80
2022-08-03T13:04:39.040Z,34.80
2022-08-03T13:07:14.310Z,34.10
2022-08-03T13:09:43.934Z,34.40
2022-08-03T13:12:14.036Z,34.10
2022-08-03T13:14:42.703Z,33.50
2022-08-03T13:17:12.414Z,33.70
2022-08-03T13:19:41.514Z,34.00
2022-08-03T13:22:13.276Z,34.20
2022-08-03T13:24:41.319Z,34.40
2022-08-03T13:28:01.070Z,34.90
2022-08-03T13:29:58.206Z,35.20
2022-08-03T13:32:27.613Z,35.00
2022-08-03T13:34:55.658Z,35.30
2022-08-03T13:37:23.883Z,35.40
2022-08-03T13:39:59.481Z,35.70
2022-08-03T13:42:29.487Z,35.80
2022-08-03T13:44:57.559Z,35.90
2022-08-03T13:47:27.212Z,36.00
2022-08-03T13:50:01.048Z,36.00
2022-08-03T13:52:31.524Z,36.00
2022-08-03T13:54:59.843Z,36.10
2022-08-03T13:58:04.606Z,35.80
2022-08-03T14:00:26.115Z,35.50
2022-08-03T14:03:05.261Z,35.70
2022-08-03T14:05:38.791Z,35.70
2022-08-03T14:08:08.288Z,35.90
2022-08-03T14:10:37.885Z,35.90
2022-08-03T14:13:06.418Z,35.90
2022-08-03T14:15:38.021Z,36.00
2022-08-03T14:18:12.660Z,36.00
2022-08-03T14:20:47.727Z,36.00
2022-08-03T14:23:18.678Z,35.40
2022-08-03T14:25:51.554Z,35.10
2022-08-03T14:28:22.451Z,35.40
2022-08-03T14:30:50.936Z,35.50
2022-08-03T14:33:20.719Z,35.50
2022-08-03T14:35:49.221Z,35.40
2022-08-03T14:38:17.475Z,35.30
2022-08-03T14:40:45.876Z,35.20
2022-08-03T14:43:14.351Z,34.60
2022-08-03T14:45:42.744Z,34.20
2022-08-03T14:50:29.531Z,34.00
2022-08-03T14:51:01.722Z,34.30
2022-08-03T14:53:30.623Z,34.80
2022-08-03T14:55:58.801Z,34.80
2022-08-03T14:58:27.308Z,34.70
2022-08-03T15:00:56.781Z,34.70
2022-08-03T15:03:26.061Z,34.80
2022-08-03T15:05:55.045Z,35.20
2022-08-03T15:08:26.112Z,35.20
2022-08-03T15:10:54.859Z,35.20
2022-08-03T15:13:23.569Z,35.20
2022-08-03T15:15:52.178Z,35.10
2022-08-03T15:18:21.147Z,34.60
2022-08-03T15:20:50.644Z,34.70
2022-08-03T15:23:19.564Z,34.90
2022-08-03T15:26:06.524Z,35.10
2022-08-03T15:28:37.691Z,34.70
2022-08-03T15:31:07.109Z,34.90
2022-08-03T15:33:35.508Z,35.10
2022-08-03T15:36:04.186Z,34.40
2022-08-03T15:38:32.502Z,34.30
2022-08-03T15:41:01.981Z,34.70
2022-08-03T15:43:30.033Z,34.90
2022-08-03T15:46:27.799Z,35.20
2022-08-03T15:48:46.845Z,35.30
2022-08-03T15:51:15.336Z,35.20
2022-08-03T15:53:43.505Z,35.10
2022-08-03T15:56:18.140Z,35.10
2022-08-03T15:59:03.988Z,35.10
2022-08-03T16:01:35.147Z,34.80
2022-08-03T16:04:03.167Z,33.90
2022-08-03T16:06:35.343Z,34.20
2022-08-03T16:09:23.129Z,34.40
2022-08-03T16:11:56.031Z,34.60
2022-08-03T16:14:32.200Z,34.70
2022-08-03T16:17:04.097Z,34.80
2022-08-03T16:19:32.282Z,34.80
2022-08-03T16:22:00.310Z,34.60
2022-08-03T16:24:28.879Z,34.50
2022-08-03T16:26:58.531Z,34.50
2022-08-03T16:29:29.343Z,34.60
2022-08-03T16:31:57.307Z,34.70
2022-08-03T16:34:25.306Z,34.70
2022-08-03T16:36:54.574Z,34.60
2022-08-03T16:39:22.798Z,34.60
2022-08-03T16:41:54.291Z,34.70
2022-08-03T16:44:31.810Z,34.60
2022-08-03T16:46:59.969Z,34.60
2022-08-03T16:49:54.806Z,34.50
2022-08-03T16:52:16.564Z,34.60
2022-08-03T16:54:53.093Z,34.50
2022-08-03T16:57:56.040Z,34.40
2022-08-03T17:00:33.200Z,34.30
2022-08-03T17:03:16.386Z,34.30
2022-08-03T17:05:49.571Z,34.20
2022-08-03T17:08:26.209Z,34.20
2022-08-03T17:10:55.975Z,34.00
2022-08-03T17:13:38.902Z,33.90
2022-08-03T17:16:12.151Z,33.80
2022-08-03T17:18:51.182Z,33.60
2022-08-03T17:21:23.939Z,33.60
2022-08-03T17:23:58.369Z,33.50
2022-08-03T17:26:30.323Z,33.40
2022-08-03T17:29:12.520Z,33.30
2022-08-03T17:31:49.462Z,33.00
2022-08-03T17:34:18.849Z,33.00
2022-08-03T17:37:03.859Z,33.00
2022-08-03T17:39:57.274Z,32.80
2022-08-03T17:42:30.542Z,32.50
2022-08-03T17:45:08.225Z,32.50
2022-08-03T17:47:45.900Z,32.20
2022-08-03T17:50:36.290Z,32.10
2022-08-03T17:53:15.292Z,31.90
2022-08-03T17:56:42.413Z,31.60
2022-08-03T17:59:08.250Z,31.30
2022-08-03T18:02:09.566Z,31.00
2022-08-03T18:04:57.258Z,30.70
2022-08-03T18:07:41.107Z,30.40
2022-08-03T18:10:15.472Z,30.20
2022-08-03T18:12:54.758Z,29.80
2022-08-03T18:15:28.617Z,29.70
2022-08-03T18:18:02.760Z,29.50
2022-08-03T18:20:42.101Z,29.40
2022-08-03T18:26:01.008Z,29.30
2022-08-03T18:28:29.990Z,29.10
2022-08-03T18:30:58.700Z,29.00
2022-08-03T18:34:16.432Z,28.90
2022-08-03T18:36:29.398Z,28.80
2022-08-03T18:38:59.844Z,28.80
2022-08-03T18:41:32.639Z,28.60
2022-08-03T18:44:07.606Z,28.60
2022-08-03T18:46:48.125Z,28.50
2022-08-03T18:49:29.138Z,28.40
2022-08-03T18:52:04.750Z,28.30
2022-08-03T18:55:02.891Z,28.10
2022-08-03T18:57:43.920Z,27.90
2022-08-03T19:00:24.461Z,27.90
2022-08-03T19:03:05.792Z,27.80
2022-08-03T19:06:02.347Z,27.80
2022-08-03T19:08:42.133Z,27.70
2022-08-03T19:11:15.459Z,27.60
2022-08-03T19:13:50.355Z,27.50
2022-08-03T19:16:24.899Z,27.40
2022-08-03T19:18:55.165Z,27.40
2022-08-03T19:21:23.708Z,27.30
2022-08-03T19:23:54.048Z,27.30
2022-08-03T19:26:30.244Z,27.20
2022-08-03T19:29:00.733Z,27.10
2022-08-03T19:31:30.851Z,27.10
2022-08-03T19:34:04.373Z,27.00
2022-08-03T19:36:40.581Z,26.90
2022-08-03T19:39:14.349Z,26.70
2022-08-03T19:41:51.335Z,26.70
2022-08-03T19:44:24.900Z,26.60
2022-08-03T19:46:55.619Z,26.60
2022-08-03T19:50:05.145Z,26.60
2022-08-03T19:52:20.923Z,26.50
2022-08-03T19:55:00.324Z,26.60
2022-08-03T19:57:30.415Z,26.40
2022-08-03T19:59:58.769Z,26.30
2022-08-03T20:02:34.322Z,26.30
2022-08-03T20:05:03.114Z,26.30
2022-08-03T20:07:32.769Z,26.30
2022-08-03T20:10:04.314Z,26.40
2022-08-03T20:12:39.389Z,26.40
2022-08-03T20:15:09.028Z,26.50
2022-08-03T20:17:56.125Z,26.40
2022-08-03T20:20:28.214Z,26.50
2022-08-03T20:22:59.547Z,26.50
2022-08-03T20:25:38.953Z,26.50
2022-08-03T20:28:14.547Z,26.40
2022-08-03T20:30:44.466Z,26.40
2022-08-03T20:33:18.340Z,26.30
2022-08-03T20:35:49.370Z,26.20
2022-08-03T20:38:19.141Z,26.30
2022-08-03T20:40:49.350Z,26.30
2022-08-03T20:43:19.983Z,26.30
2022-08-03T20:46:00.112Z,26.30
2022-08-03T20:48:37.215Z,26.20
2022-08-03T20:51:15.666Z,26.20
2022-08-03T20:53:59.616Z,26.10
2022-08-03T20:56:34.189Z,26.10
2022-08-03T20:59:04.231Z,26.10
2022-08-03T21:01:35.985Z,26.10
2022-08-03T21:04:07.033Z,26.00
2022-08-03T21:06:42.348Z,25.90
2022-08-03T21:09:19.931Z,25.80
2022-08-03T21:11:52.180Z,25.70
2022-08-03T21:12:57.899Z,29.30
2022-08-03T21:14:24.825Z,25.70
2022-08-03T21:16:53.998Z,25.60
2022-08-03T21:19:23.685Z,25.60
2022-08-03T21:21:52.208Z,25.50
2022-08-03T21:24:24.057Z,25.50
2022-08-03T21:26:55.493Z,25.40
2022-08-03T21:29:24.793Z,25.40
2022-08-03T21:31:52.894Z,25.40
2022-08-03T21:34:21.675Z,25.30
2022-08-03T21:36:50.171Z,25.40
2022-08-03T21:39:18.287Z,25.30
2022-08-03T21:41:46.496Z,25.20
2022-08-03T21:44:28.845Z,25.10
2022-08-03T21:47:00.045Z,25.10
2022-08-03T21:50:05.167Z,25.10
2022-08-03T21:52:24.055Z,25.10
2022-08-03T21:54:54.288Z,25.10
2022-08-03T21:57:25.220Z,25.00
2022-08-03T21:59:57.267Z,25.00
2022-08-03T22:02:30.063Z,25.00
2022-08-03T22:05:00.054Z,24.90
2022-08-03T22:07:31.194Z,24.90
2022-08-03T22:10:00.953Z,24.80
2022-08-03T22:12:31.591Z,24.80
2022-08-03T22:15:02.488Z,24.70
2022-08-03T22:17:53.876Z,24.60
2022-08-03T22:20:22.096Z,24.60
2022-08-03T22:22:55.973Z,24.40
2022-08-03T22:25:28.779Z,24.40
2022-08-03T22:27:58.119Z,24.30
2022-08-03T22:30:27.695Z,24.30
2022-08-03T22:32:57.492Z,24.30
2022-08-03T22:35:27.723Z,24.20
2022-08-03T22:38:00.080Z,24.20
2022-08-03T22:40:29.020Z,24.10
2022-08-03T22:42:58.828Z,24.00
2022-08-03T22:46:05.959Z,24.00
2022-08-03T22:48:19.183Z,24.00
2022-08-03T22:50:48.324Z,24.00
2022-08-03T22:53:19.274Z,24.00
2022-08-03T22:55:48.590Z,23.80
2022-08-03T22:58:16.841Z,23.80
2022-08-03T23:00:54.071Z,23.80
2022-08-03T23:03:25.442Z,23.90
2022-08-03T23:06:17.407Z,23.90
2022-08-03T23:08:48.048Z,23.80
2022-08-03T23:11:19.380Z,23.70
2022-08-03T23:13:53.181Z,23.70
2022-08-03T23:16:27.881Z,23.60
2022-08-03T23:18:58.915Z,23.60
2022-08-03T23:21:59.947Z,23.70
2022-08-03T23:24:24.607Z,23.70
2022-08-03T23:26:58.591Z,23.70
2022-08-03T23:29:32.034Z,23.50
2022-08-03T23:32:02.947Z,23.50
2022-08-03T23:34:50.358Z,23.50
2022-08-03T23:37:19.561Z,23.40
2022-08-03T23:39:49.581Z,23.20
2022-08-03T23:42:20.123Z,23.20
2022-08-03T23:44:48.556Z,23.30
2022-08-03T23:47:17.921Z,23.20
2022-08-03T23:49:46.080Z,23.10
2022-08-03T23:52:28.485Z,23.00
2022-08-03T23:55:13.083Z,23.00
2022-08-03T23:57:53.390Z,23.00
